M4 — V7YF6 — position and weather

sailwx.info

Track history (hours):
 
Tides and Currents Weather Stations Pressure Air Temp Water Temp Dewpoint Dewpoint Depression Visibility Wind Speed Wind Dir Waves Ship Positions

M4

Last reported at 2018-Feb-17 15:04 UTC. Time now 2018-Feb-19 14:21 UTC.
Position N 14°29' W 061°12'.

Length 42 m; draft 2.4 m.

Type: Pleasure craft. MMSI: 538070835.

Date/timePositionNaut miles runAvg speedWind from/ knotsBaromVisibWave heightAir tempDewpointWater temp
2018-Feb-17 15:04N 14°29' W 061°12'1 9.8
2018-Feb-17 15:00N 14°29' W 061°12'810.0
2018-Feb-17 14:10N 14°36' W 061°17'119 9.5
2018-Feb-17 01:39N 16°22' W 062°14'210.1
2018-Feb-17 01:29N 16°23' W 062°15'510.0
2018-Feb-17 01:00N 16°28' W 062°18'5 9.8
2018-Feb-17 00:29N 16°32' W 062°20'5 9.8
2018-Feb-16 23:58N 16°37' W 062°22'510.0
2018-Feb-16 23:30N 16°41' W 062°25'510.1
2018-Feb-16 22:59N 16°45' W 062°28'36 8.0
2018-Feb-16 18:31N 17°17' W 062°45'110.0
2018-Feb-16 18:28N 17°17' W 062°46'12 9.2
2018-Feb-16 17:12N 17°23' W 062°56'2 9.1
2018-Feb-16 16:56N 17°25' W 062°58'15 8.9
2018-Feb-16 15:12N 17°39' W 063°04'3 9.6
2018-Feb-16 14:52N 17°42' W 063°04'3 9.6
2018-Feb-16 14:30N 17°46' W 063°05'5 9.3
2018-Feb-16 14:00N 17°51' W 063°05'5 9.3
2018-Feb-16 13:27N 17°56' W 063°05'4 9.4
2018-Feb-16 13:00N 17°60' W 063°06'3 3.2
2018-Feb-16 12:13N 18°02' W 063°05'0 0.4
2018-Feb-16 11:58N 18°02' W 063°05'0 0.0
2018-Feb-16 11:28N 18°02' W 063°05'0 0.0
2018-Feb-16 10:49N 18°02' W 063°05'0 0.0
2018-Feb-16 10:19N 18°02' W 063°05'0 0.0
2018-Feb-16 09:52N 18°02' W 063°05'0 0.0
2018-Feb-16 09:22N 18°02' W 063°05'0 0.0
2018-Feb-16 08:52N 18°02' W 063°05'0 0.0
2018-Feb-16 08:22N 18°02' W 063°05'0 0.0
2018-Feb-16 07:52N 18°02' W 063°05'0 0.0
2018-Feb-16 07:19N 18°02' W 063°05'0 0.0
2018-Feb-16 06:52N 18°02' W 063°05'0 0.0
2018-Feb-16 06:26N 18°02' W 063°05'0 0.0
2018-Feb-16 05:55N 18°02' W 063°05'0 0.0
2018-Feb-16 05:25N 18°02' W 063°05'0 0.0
2018-Feb-16 04:40N 18°02' W 063°05'0 0.0
2018-Feb-16 04:25N 18°02' W 063°05'0 0.0
2018-Feb-16 03:58N 18°02' W 063°05'0 0.0
2018-Feb-16 03:28N 18°02' W 063°05'0 0.0
2018-Feb-16 02:58N 18°02' W 063°05'0 0.0
2018-Feb-16 02:28N 18°02' W 063°05'0 0.0
2018-Feb-16 01:55N 18°02' W 063°05'0 0.0
2018-Feb-16 01:28N 18°02' W 063°05'0 0.0
2018-Feb-16 00:55N 18°02' W 063°05'0 0.0
2018-Feb-16 00:28N 18°02' W 063°05'0 0.0
2018-Feb-15 23:58N 18°02' W 063°05'0 0.0
2018-Feb-15 23:16N 18°02' W 063°05'0 0.0
2018-Feb-15 22:58N 18°02' W 063°05'0 0.0
2018-Feb-15 22:28N 18°02' W 063°05'0 0.0
2018-Feb-15 21:58N 18°02' W 063°05'0 0.0
2018-Feb-15 21:28N 18°02' W 063°05'0 0.0
2018-Feb-15 20:49N 18°02' W 063°05'0 0.0
2018-Feb-15 20:19N 18°02' W 063°05'0 0.0
2018-Feb-15 19:52N 18°02' W 063°05'0 0.0
2018-Feb-15 19:22N 18°02' W 063°05'0 0.0
2018-Feb-15 18:52N 18°02' W 063°05'0 0.0
2018-Feb-15 18:22N 18°02' W 063°05'0 0.0
2018-Feb-15 17:52N 18°02' W 063°05'0 0.0
2018-Feb-15 17:19N 18°02' W 063°05'0 0.0
2018-Feb-15 16:55N 18°02' W 063°05'0 0.0
2018-Feb-15 16:22N 18°02' W 063°05'0 0.0
2018-Feb-15 15:55N 18°02' W 063°05'0 0.0
2018-Feb-15 15:25N 18°02' W 063°05'0 0.0
2018-Feb-15 14:55N 18°02' W 063°05'0 0.0
2018-Feb-15 14:25N 18°02' W 063°05'0 0.0
2018-Feb-15 13:58N 18°02' W 063°05'0 0.0
2018-Feb-15 13:28N 18°02' W 063°05'0 0.0
2018-Feb-15 12:58N 18°02' W 063°05'0 0.0
2018-Feb-15 12:28N 18°02' W 063°05'0 0.0
2018-Feb-15 11:58N 18°02' W 063°05'0 0.0
2018-Feb-15 11:28N 18°02' W 063°05'0 0.0
2018-Feb-15 10:58N 18°02' W 063°05'0 0.0
2018-Feb-15 10:25N 18°02' W 063°05'0 0.0
2018-Feb-15 09:58N 18°02' W 063°05'0 0.0
2018-Feb-15 09:28N 18°02' W 063°05'0 0.0
2018-Feb-15 08:58N 18°02' W 063°05'0 0.0
2018-Feb-15 08:28N 18°02' W 063°05'0 0.0
2018-Feb-15 07:58N 18°02' W 063°05'0 0.0
2018-Feb-15 07:28N 18°02' W 063°05'0 0.0
2018-Feb-15 06:49N 18°02' W 063°05'0 0.0
2018-Feb-15 06:19N 18°02' W 063°05'0 0.0
2018-Feb-15 05:49N 18°02' W 063°05'0 0.0
2018-Feb-15 05:19N 18°02' W 063°05'0 0.0
2018-Feb-15 04:52N 18°02' W 063°05'0 0.0
2018-Feb-15 04:22N 18°02' W 063°05'0 0.0
2018-Feb-15 03:52N 18°02' W 063°05'0 0.0
2018-Feb-15 03:22N 18°02' W 063°05'0 0.0
2018-Feb-15 02:55N 18°02' W 063°05'0 0.0
2018-Feb-15 02:25N 18°02' W 063°05'0 0.0
2018-Feb-15 01:55N 18°02' W 063°05'0 0.0
2018-Feb-15 01:25N 18°02' W 063°05'0 0.0
2018-Feb-15 00:55N 18°02' W 063°05'0 0.0
2018-Feb-15 00:25N 18°02' W 063°05'0 0.0
2018-Feb-14 23:58N 18°02' W 063°05'0 0.0
2018-Feb-14 23:28N 18°02' W 063°05'0 0.0
2018-Feb-14 22:58N 18°02' W 063°05'0 0.0
2018-Feb-14 22:28N 18°02' W 063°05'0 0.0
2018-Feb-14 21:58N 18°02' W 063°05'0 0.0
2018-Feb-14 21:28N 18°02' W 063°05'0 0.0
2018-Feb-14 20:58N 18°02' W 063°05'0 0.0
2018-Feb-14 20:28N 18°02' W 063°05'0 0.0
2018-Feb-14 19:31N 18°02' W 063°05'0 0.0
2018-Feb-14 19:28N 18°02' W 063°05'0 0.0
2018-Feb-14 18:58N 18°02' W 063°05'0 0.0
2018-Feb-14 18:28N 18°02' W 063°05'0 0.0
2018-Feb-14 17:58N 18°02' W 063°05'0 0.0
2018-Feb-14 17:19N 18°02' W 063°05'0 0.0
2018-Feb-14 16:49N 18°02' W 063°05'0 0.0
2018-Feb-14 16:19N 18°02' W 063°05'0 0.0
2018-Feb-14 15:52N 18°02' W 063°05'0 0.0
2018-Feb-14 15:22N 18°02' W 063°05'0 0.0
2018-Feb-14 14:52N 18°02' W 063°05'0 0.0
2018-Feb-14 14:07N 18°02' W 063°05'0 0.0
2018-Feb-14 13:52N 18°02' W 063°05'0 0.0
2018-Feb-14 13:22N 18°02' W 063°05'0 0.0
2018-Feb-14 12:55N 18°02' W 063°05'0 0.0
2018-Feb-14 12:25N 18°02' W 063°05'0 0.0
2018-Feb-14 11:52N 18°02' W 063°05'0 0.0
2018-Feb-14 11:10N 18°02' W 063°05'0 0.0
2018-Feb-14 10:55N 18°02' W 063°05'0 0.0
2018-Feb-14 10:28N 18°02' W 063°05'0 0.0
2018-Feb-14 09:58N 18°02' W 063°05'0 0.0
2018-Feb-14 09:28N 18°02' W 063°05'0 0.0
2018-Feb-14 08:58N 18°02' W 063°05'0 0.0
2018-Feb-14 08:28N 18°02' W 063°05'0 0.0
2018-Feb-14 07:58N 18°02' W 063°05'0 0.0
2018-Feb-14 07:28N 18°02' W 063°05'0 0.0
2018-Feb-14 06:58N 18°02' W 063°05'0 0.0
2018-Feb-14 06:28N 18°02' W 063°05'0 0.0
2018-Feb-14 05:58N 18°02' W 063°05'0 0.0
2018-Feb-14 05:28N 18°02' W 063°05'0 0.0
2018-Feb-14 04:58N 18°02' W 063°05'0 0.0
2018-Feb-14 04:28N 18°02' W 063°05'0 0.0
2018-Feb-14 03:58N 18°02' W 063°05'0 0.0
2018-Feb-14 03:19N 18°02' W 063°05'0 0.0
2018-Feb-14 02:49N 18°02' W 063°05'0 0.0
2018-Feb-14 02:19N 18°02' W 063°05'0 0.0
2018-Feb-14 01:52N 18°02' W 063°05'0 0.0
2018-Feb-14 01:22N 18°02' W 063°05'0 0.0
2018-Feb-14 00:52N 18°02' W 063°05'0 0.0
2018-Feb-14 00:22N 18°02' W 063°05'0 0.0
2018-Feb-13 23:52N 18°02' W 063°05'0 0.0
2018-Feb-13 23:22N 18°02' W 063°05'0 0.0
2018-Feb-13 22:55N 18°02' W 063°05'0 0.0
2018-Feb-13 22:25N 18°02' W 063°05'0 0.0
2018-Feb-13 21:55N 18°02' W 063°05'0 0.0
2018-Feb-13 21:25N 18°02' W 063°05'0 0.0
2018-Feb-13 20:55N 18°02' W 063°05'0 0.0
2018-Feb-13 20:25N 18°02' W 063°05'0 0.0
2018-Feb-13 19:58N 18°02' W 063°05'0 0.0
2018-Feb-13 19:28N 18°02' W 063°05'0 0.0
2018-Feb-13 18:58N 18°02' W 063°05'0 0.0
2018-Feb-13 18:28N 18°02' W 063°05'0 0.0
2018-Feb-13 17:58N 18°02' W 063°05'0 0.0
2018-Feb-13 17:28N 18°02' W 063°05'0 0.0
2018-Feb-13 16:58N 18°02' W 063°05'0 0.0
2018-Feb-13 16:28N 18°02' W 063°05'0 0.0
2018-Feb-13 15:58N 18°02' W 063°05'0 0.0
2018-Feb-13 15:28N 18°02' W 063°05'0 0.0
2018-Feb-13 14:58N 18°02' W 063°05'0 0.0
2018-Feb-13 14:28N 18°02' W 063°05'0 0.0
2018-Feb-13 13:58N 18°02' W 063°05'0 0.0
2018-Feb-13 13:19N 18°02' W 063°05'0 0.0
2018-Feb-13 12:49N 18°02' W 063°05'0 0.0
2018-Feb-13 12:19N 18°02' W 063°05'0 0.0
2018-Feb-13 11:52N 18°02' W 063°05'0 0.0
2018-Feb-13 11:22N 18°02' W 063°05'0 0.0
2018-Feb-13 10:52N 18°02' W 063°05'0 0.0
2018-Feb-13 10:22N 18°02' W 063°05'0 0.0
2018-Feb-13 09:52N 18°02' W 063°05'0 0.0
2018-Feb-13 09:22N 18°02' W 063°05'0 0.0
2018-Feb-13 08:55N 18°02' W 063°05'0 0.0
2018-Feb-13 08:25N 18°02' W 063°05'0 0.0
2018-Feb-13 07:55N 18°02' W 063°05'0 0.0
2018-Feb-13 07:25N 18°02' W 063°05'0 0.0
2018-Feb-13 06:55N 18°02' W 063°05'0 0.0
2018-Feb-13 06:28N 18°02' W 063°05'0 0.0
2018-Feb-13 05:58N 18°02' W 063°05'0 0.0
2018-Feb-13 05:28N 18°02' W 063°05'0 0.0
2018-Feb-13 04:58N 18°02' W 063°05'0 0.0
2018-Feb-13 04:28N 18°02' W 063°05'0 0.0
2018-Feb-13 03:58N 18°02' W 063°05'0 0.0
2018-Feb-13 03:28N 18°02' W 063°05'0 0.0
2018-Feb-13 02:58N 18°02' W 063°05'0 0.0
2018-Feb-13 02:28N 18°02' W 063°05'0 0.0
2018-Feb-13 01:58N 18°02' W 063°05'0 0.0
2018-Feb-13 01:28N 18°02' W 063°05'0 0.0
2018-Feb-13 00:58N 18°02' W 063°05'0 0.0
2018-Feb-13 00:28N 18°02' W 063°05'0 0.0
2018-Feb-12 23:58N 18°02' W 063°05'0 0.0
2018-Feb-12 23:19N 18°02' W 063°05'0 0.0
2018-Feb-12 22:49N 18°02' W 063°05'0 0.0
2018-Feb-12 22:22N 18°02' W 063°05'0 0.0
2018-Feb-12 21:52N 18°02' W 063°05'0 0.0
2018-Feb-12 21:22N 18°02' W 063°05'0 0.0
2018-Feb-12 20:52N 18°02' W 063°05'0 0.0
2018-Feb-12 20:22N 18°02' W 063°05'0 0.0
2018-Feb-12 19:52N 18°02' W 063°05'0 0.0
2018-Feb-12 19:25N 18°02' W 063°05'0 0.0
2018-Feb-12 18:52N 18°02' W 063°05'0 0.0
2018-Feb-12 18:25N 18°02' W 063°05'0 0.0
2018-Feb-12 17:55N 18°02' W 063°05'0 0.0
2018-Feb-12 17:25N 18°02' W 063°05'0 0.0
2018-Feb-12 16:55N 18°02' W 063°05'0 0.0
2018-Feb-12 16:28N 18°02' W 063°05'0 0.0
2018-Feb-12 15:58N 18°02' W 063°05'0 0.0
2018-Feb-12 15:13N 18°02' W 063°05'0 0.0
2018-Feb-12 14:55N 18°02' W 063°05'0 0.0
2018-Feb-12 14:28N 18°02' W 063°05'0 0.0
2018-Feb-12 13:58N 18°02' W 063°05'0 0.0
2018-Feb-12 13:28N 18°02' W 063°05'0 0.0
2018-Feb-12 12:55N 18°02' W 063°05'0 0.0
2018-Feb-12 12:28N 18°02' W 063°05'0 0.0
2018-Feb-12 11:58N 18°02' W 063°05'0 0.0
2018-Feb-12 11:28N 18°02' W 063°05'0 0.0
2018-Feb-12 10:58N 18°02' W 063°05'0 0.0
2018-Feb-12 10:28N 18°02' W 063°05'0 0.0
2018-Feb-12 09:58N 18°02' W 063°05'0 0.0
2018-Feb-12 09:16N 18°02' W 063°05'0 0.0
2018-Feb-12 08:49N 18°02' W 063°05'0 0.0
2018-Feb-12 08:22N 18°02' W 063°05'0 0.0
2018-Feb-12 07:49N 18°02' W 063°05'0 0.0
2018-Feb-12 07:22N 18°02' W 063°05'0 0.0
2018-Feb-12 06:52N 18°02' W 063°05'0 0.0
2018-Feb-12 06:07N 18°02' W 063°05'0 0.0
2018-Feb-12 05:49N 18°02' W 063°05'0 0.0
2018-Feb-12 05:25N 18°02' W 063°05'0 0.0
2018-Feb-12 04:55N 18°02' W 063°05'0 0.0
2018-Feb-12 04:25N 18°02' W 063°05'0 0.0
2018-Feb-12 03:55N 18°02' W 063°05'0 0.0
2018-Feb-12 03:25N 18°02' W 063°05'0 0.0
2018-Feb-12 02:55N 18°02' W 063°05'0 0.0
2018-Feb-12 02:28N 18°02' W 063°05'0 0.0
2018-Feb-12 01:58N 18°02' W 063°05'0 0.0
2018-Feb-12 01:28N 18°02' W 063°05'0 0.0
2018-Feb-12 00:58N 18°02' W 063°05'0 0.0
2018-Feb-12 00:28N 18°02' W 063°05'0 0.0
2018-Feb-11 23:55N 18°02' W 063°05'0 0.0
2018-Feb-11 23:28N 18°02' W 063°05'0 0.0
2018-Feb-11 22:58N 18°02' W 063°05'0 0.0
2018-Feb-11 22:28N 18°02' W 063°05'0 0.0
2018-Feb-11 21:58N 18°02' W 063°05'0 0.0
2018-Feb-11 21:28N 18°02' W 063°05'0 0.0
2018-Feb-11 20:49N 18°02' W 063°05'0 0.0
2018-Feb-11 20:28N 18°02' W 063°05'0 0.0
2018-Feb-11 19:58N 18°02' W 063°05'0 0.0
2018-Feb-11 19:19N 18°02' W 063°05'0 0.0
2018-Feb-11 18:49N 18°02' W 063°05'0 0.0
2018-Feb-11 18:19N 18°02' W 063°05'0 0.0
2018-Feb-11 17:52N 18°02' W 063°05'0 0.0
2018-Feb-11 17:22N 18°02' W 063°05'0 0.0
2018-Feb-11 16:52N 18°02' W 063°05'0 0.0
2018-Feb-11 16:22N 18°02' W 063°05'0 0.0
2018-Feb-11 15:52N 18°02' W 063°05'0 0.0
2018-Feb-11 15:22N 18°02' W 063°05'0 0.0
2018-Feb-11 14:55N 18°02' W 063°05'0 0.0
2018-Feb-11 14:25N 18°02' W 063°05'0 0.0
2018-Feb-11 13:55N 18°02' W 063°05'0 0.0
2018-Feb-11 13:25N 18°02' W 063°05'0 0.0
2018-Feb-11 12:55N 18°02' W 063°05'0 0.0
2018-Feb-11 12:28N 18°02' W 063°05'0 0.0
2018-Feb-11 11:58N 18°02' W 063°05'0 0.0
2018-Feb-11 11:28N 18°02' W 063°05'0 0.0
2018-Feb-11 10:58N 18°02' W 063°05'0 0.0
2018-Feb-11 10:28N 18°02' W 063°05'0 0.0
2018-Feb-11 09:58N 18°02' W 063°05'0 0.0
2018-Feb-11 09:28N 18°02' W 063°05'0 0.0
2018-Feb-11 08:58N 18°02' W 063°05'0 0.0
2018-Feb-11 08:28N 18°02' W 063°05'0 0.0
2018-Feb-11 07:58N 18°02' W 063°05'0 0.0
2018-Feb-11 07:28N 18°02' W 063°05'0 0.0
2018-Feb-11 06:49N 18°02' W 063°05'0 0.0
2018-Feb-11 06:28N 18°02' W 063°05'0 0.0
2018-Feb-11 05:46N 18°02' W 063°05'0 0.0
2018-Feb-11 05:19N 18°02' W 063°05'0 0.0
2018-Feb-11 04:49N 18°02' W 063°05'0 0.0
2018-Feb-11 04:22N 18°02' W 063°05'0 0.0
2018-Feb-11 03:52N 18°02' W 063°05'0 0.0
2018-Feb-11 03:19N 18°02' W 063°05'0 0.0
2018-Feb-11 02:52N 18°02' W 063°05'0 0.0
2018-Feb-11 02:19N 18°02' W 063°05'0 0.0
2018-Feb-11 01:49N 18°02' W 063°05'0 0.0
2018-Feb-11 01:25N 18°02' W 063°05'0 0.0
2018-Feb-11 00:55N 18°02' W 063°05'0 0.0
2018-Feb-11 00:25N 18°02' W 063°05'0 0.0
2018-Feb-10 23:55N 18°02' W 063°05'0 0.0
2018-Feb-10 23:25N 18°02' W 063°05'0 0.0
2018-Feb-10 22:55N 18°02' W 063°05'0 0.0
2018-Feb-10 22:28N 18°02' W 063°05'0 0.0
2018-Feb-10 21:13N 18°02' W 063°05'0 0.0
2018-Feb-10 20:58N 18°02' W 063°05'0 0.0
2018-Feb-10 20:28N 18°02' W 063°05'0 0.0
2018-Feb-10 19:55N 18°02' W 063°05'0 0.0
2018-Feb-10 19:28N 18°02' W 063°05'0 0.0
2018-Feb-10 18:58N 18°02' W 063°05'0 0.0
2018-Feb-10 18:28N 18°02' W 063°05'0 0.0
2018-Feb-10 17:58N 18°02' W 063°05'0 0.0
2018-Feb-10 17:01N 18°02' W 063°05'0 0.0
2018-Feb-10 16:58N 18°02' W 063°05'0 0.0
2018-Feb-10 16:28N 18°02' W 063°05'0 0.0
2018-Feb-10 15:46N 18°02' W 063°05'0 0.0
2018-Feb-10 15:19N 18°02' W 063°05'0 0.0
2018-Feb-10 14:49N 18°02' W 063°05'0 0.0
2018-Feb-10 14:22N 18°02' W 063°05'0 0.0
2018-Feb-10 13:49N 18°02' W 063°05'0 0.0
2018-Feb-10 13:22N 18°02' W 063°05'0 0.0
2018-Feb-10 12:52N 18°02' W 063°05'0 0.0
2018-Feb-10 12:22N 18°02' W 063°05'0 0.0
2018-Feb-10 11:52N 18°02' W 063°05'0 0.0
2018-Feb-10 11:25N 18°02' W 063°05'0 0.0
2018-Feb-10 10:55N 18°02' W 063°05'0 0.0
2018-Feb-10 10:25N 18°02' W 063°05'0 0.0
2018-Feb-10 09:55N 18°02' W 063°05'0 0.0
2018-Feb-10 09:25N 18°02' W 063°05'0 0.0
2018-Feb-10 08:58N 18°02' W 063°05'0 0.0
2018-Feb-10 08:28N 18°02' W 063°05'0 0.0
2018-Feb-10 07:58N 18°02' W 063°05'0 0.0
2018-Feb-10 07:28N 18°02' W 063°05'0 0.0
2018-Feb-10 06:58N 18°02' W 063°05'0 0.0
2018-Feb-10 06:16N 18°02' W 063°05'0 0.0
2018-Feb-10 05:55N 18°02' W 063°05'0 0.0
2018-Feb-10 05:28N 18°02' W 063°05'0 0.0
2018-Feb-10 04:58N 18°02' W 063°05'0 0.0
2018-Feb-10 04:16N 18°02' W 063°05'0 0.0
2018-Feb-10 03:58N 18°02' W 063°05'0 0.0
2018-Feb-10 03:28N 18°02' W 063°05'0 0.0
2018-Feb-10 02:49N 18°02' W 063°05'0 0.0
2018-Feb-10 02:19N 18°02' W 063°05'0 0.0
2018-Feb-10 01:49N 18°02' W 063°05'0 0.0
2018-Feb-10 01:19N 18°02' W 063°05'0 0.0
2018-Feb-10 00:49N 18°02' W 063°05'0 0.0
2018-Feb-10 00:19N 18°02' W 063°05'0 0.0
2018-Feb-09 23:52N 18°02' W 063°05'0 0.0
2018-Feb-09 23:22N 18°02' W 063°05'0 0.0
2018-Feb-09 22:52N 18°02' W 063°05'0 0.0
2018-Feb-09 22:37N 18°02' W 063°05'0 0.0
2018-Feb-08 01:25N 18°02' W 063°05'0 0.0
2018-Feb-08 00:58N 18°02' W 063°05'0 0.0
2018-Feb-08 00:28N 18°02' W 063°05'0 0.0
2018-Feb-07 23:58N 18°02' W 063°05'0 0.0
2018-Feb-07 23:28N 18°02' W 063°05'0 0.0
2018-Feb-07 22:58N 18°02' W 063°05'0 0.0
2018-Feb-07 22:28N 18°02' W 063°05'0 0.0
2018-Feb-07 21:58N 18°02' W 063°05'0 0.0
2018-Feb-07 21:28N 18°02' W 063°05'  
Track history (hours):
 
Tides and Currents Weather Stations Pressure Air Temp Water Temp Dewpoint Dewpoint Depression Visibility Wind Speed Wind Dir Waves Ship Positions

M4

Last reported at 2018-Feb-17 15:04 UTC. Time now 2018-Feb-19 14:21 UTC.
Position N 14°29' W 061°12'.

Length 42 m; draft 2.4 m.

Type: Pleasure craft. MMSI: 538070835.

Date/timePositionNaut miles runAvg speedWind from/ knotsBaromVisibWave heightAir tempDewpointWater temp
2018-Feb-17 15:04N 14°29' W 061°12'1 9.8
2018-Feb-17 15:00N 14°29' W 061°12'810.0
2018-Feb-17 14:10N 14°36' W 061°17'119 9.5
2018-Feb-17 01:39N 16°22' W 062°14'210.1
2018-Feb-17 01:29N 16°23' W 062°15'510.0
2018-Feb-17 01:00N 16°28' W 062°18'5 9.8
2018-Feb-17 00:29N 16°32' W 062°20'5 9.8
2018-Feb-16 23:58N 16°37' W 062°22'510.0
2018-Feb-16 23:30N 16°41' W 062°25'510.1
2018-Feb-16 22:59N 16°45' W 062°28'36 8.0
2018-Feb-16 18:31N 17°17' W 062°45'110.0
2018-Feb-16 18:28N 17°17' W 062°46'12 9.2
2018-Feb-16 17:12N 17°23' W 062°56'2 9.1
2018-Feb-16 16:56N 17°25' W 062°58'15 8.9
2018-Feb-16 15:12N 17°39' W 063°04'3 9.6
2018-Feb-16 14:52N 17°42' W 063°04'3 9.6
2018-Feb-16 14:30N 17°46' W 063°05'5 9.3
2018-Feb-16 14:00N 17°51' W 063°05'5 9.3
2018-Feb-16 13:27N 17°56' W 063°05'4 9.4
2018-Feb-16 13:00N 17°60' W 063°06'3 3.2
2018-Feb-16 12:13N 18°02' W 063°05'0 0.4
2018-Feb-16 11:58N 18°02' W 063°05'0 0.0
2018-Feb-16 11:28N 18°02' W 063°05'0 0.0
2018-Feb-16 10:49N 18°02' W 063°05'0 0.0
2018-Feb-16 10:19N 18°02' W 063°05'0 0.0
2018-Feb-16 09:52N 18°02' W 063°05'0 0.0
2018-Feb-16 09:22N 18°02' W 063°05'0 0.0
2018-Feb-16 08:52N 18°02' W 063°05'0 0.0
2018-Feb-16 08:22N 18°02' W 063°05'0 0.0
2018-Feb-16 07:52N 18°02' W 063°05'0 0.0
2018-Feb-16 07:19N 18°02' W 063°05'0 0.0
2018-Feb-16 06:52N 18°02' W 063°05'0 0.0
2018-Feb-16 06:26N 18°02' W 063°05'0 0.0
2018-Feb-16 05:55N 18°02' W 063°05'0 0.0
2018-Feb-16 05:25N 18°02' W 063°05'0 0.0
2018-Feb-16 04:40N 18°02' W 063°05'0 0.0
2018-Feb-16 04:25N 18°02' W 063°05'0 0.0
2018-Feb-16 03:58N 18°02' W 063°05'0 0.0
2018-Feb-16 03:28N 18°02' W 063°05'0 0.0
2018-Feb-16 02:58N 18°02' W 063°05'0 0.0
2018-Feb-16 02:28N 18°02' W 063°05'0 0.0
2018-Feb-16 01:55N 18°02' W 063°05'0 0.0
2018-Feb-16 01:28N 18°02' W 063°05'0 0.0
2018-Feb-16 00:55N 18°02' W 063°05'0 0.0
2018-Feb-16 00:28N 18°02' W 063°05'0 0.0
2018-Feb-15 23:58N 18°02' W 063°05'0 0.0
2018-Feb-15 23:16N 18°02' W 063°05'0 0.0
2018-Feb-15 22:58N 18°02' W 063°05'0 0.0
2018-Feb-15 22:28N 18°02' W 063°05'0 0.0
2018-Feb-15 21:58N 18°02' W 063°05'0 0.0
2018-Feb-15 21:28N 18°02' W 063°05'0 0.0
2018-Feb-15 20:49N 18°02' W 063°05'0 0.0
2018-Feb-15 20:19N 18°02' W 063°05'0 0.0
2018-Feb-15 19:52N 18°02' W 063°05'0 0.0
2018-Feb-15 19:22N 18°02' W 063°05'0 0.0
2018-Feb-15 18:52N 18°02' W 063°05'0 0.0
2018-Feb-15 18:22N 18°02' W 063°05'0 0.0
2018-Feb-15 17:52N 18°02' W 063°05'0 0.0
2018-Feb-15 17:19N 18°02' W 063°05'0 0.0
2018-Feb-15 16:55N 18°02' W 063°05'0 0.0
2018-Feb-15 16:22N 18°02' W 063°05'0 0.0
2018-Feb-15 15:55N 18°02' W 063°05'0 0.0
2018-Feb-15 15:25N 18°02' W 063°05'0 0.0
2018-Feb-15 14:55N 18°02' W 063°05'0 0.0
2018-Feb-15 14:25N 18°02' W 063°05'0 0.0
2018-Feb-15 13:58N 18°02' W 063°05'0 0.0
2018-Feb-15 13:28N 18°02' W 063°05'0 0.0
2018-Feb-15 12:58N 18°02' W 063°05'0 0.0
2018-Feb-15 12:28N 18°02' W 063°05'0 0.0
2018-Feb-15 11:58N 18°02' W 063°05'0 0.0
2018-Feb-15 11:28N 18°02' W 063°05'0 0.0
2018-Feb-15 10:58N 18°02' W 063°05'0 0.0
2018-Feb-15 10:25N 18°02' W 063°05'0 0.0
2018-Feb-15 09:58N 18°02' W 063°05'0 0.0
2018-Feb-15 09:28N 18°02' W 063°05'0 0.0
2018-Feb-15 08:58N 18°02' W 063°05'0 0.0
2018-Feb-15 08:28N 18°02' W 063°05'0 0.0
2018-Feb-15 07:58N 18°02' W 063°05'0 0.0
2018-Feb-15 07:28N 18°02' W 063°05'0 0.0
2018-Feb-15 06:49N 18°02' W 063°05'0 0.0
2018-Feb-15 06:19N 18°02' W 063°05'0 0.0
2018-Feb-15 05:49N 18°02' W 063°05'0 0.0
2018-Feb-15 05:19N 18°02' W 063°05'0 0.0
2018-Feb-15 04:52N 18°02' W 063°05'0 0.0
2018-Feb-15 04:22N 18°02' W 063°05'0 0.0
2018-Feb-15 03:52N 18°02' W 063°05'0 0.0
2018-Feb-15 03:22N 18°02' W 063°05'0 0.0
2018-Feb-15 02:55N 18°02' W 063°05'0 0.0
2018-Feb-15 02:25N 18°02' W 063°05'0 0.0
2018-Feb-15 01:55N 18°02' W 063°05'0 0.0
2018-Feb-15 01:25N 18°02' W 063°05'0 0.0
2018-Feb-15 00:55N 18°02' W 063°05'0 0.0
2018-Feb-15 00:25N 18°02' W 063°05'0 0.0
2018-Feb-14 23:58N 18°02' W 063°05'0 0.0
2018-Feb-14 23:28N 18°02' W 063°05'0 0.0
2018-Feb-14 22:58N 18°02' W 063°05'0 0.0
2018-Feb-14 22:28N 18°02' W 063°05'0 0.0
2018-Feb-14 21:58N 18°02' W 063°05'0 0.0
2018-Feb-14 21:28N 18°02' W 063°05'0 0.0
2018-Feb-14 20:58N 18°02' W 063°05'0 0.0
2018-Feb-14 20:28N 18°02' W 063°05'0 0.0
2018-Feb-14 19:31N 18°02' W 063°05'0 0.0
2018-Feb-14 19:28N 18°02' W 063°05'0 0.0
2018-Feb-14 18:58N 18°02' W 063°05'0 0.0
2018-Feb-14 18:28N 18°02' W 063°05'0 0.0
2018-Feb-14 17:58N 18°02' W 063°05'0 0.0
2018-Feb-14 17:19N 18°02' W 063°05'0 0.0
2018-Feb-14 16:49N 18°02' W 063°05'0 0.0
2018-Feb-14 16:19N 18°02' W 063°05'0 0.0
2018-Feb-14 15:52N 18°02' W 063°05'0 0.0
2018-Feb-14 15:22N 18°02' W 063°05'0 0.0
2018-Feb-14 14:52N 18°02' W 063°05'0 0.0
2018-Feb-14 14:07N 18°02' W 063°05'0 0.0
2018-Feb-14 13:52N 18°02' W 063°05'0 0.0
2018-Feb-14 13:22N 18°02' W 063°05'0 0.0
2018-Feb-14 12:55N 18°02' W 063°05'0 0.0
2018-Feb-14 12:25N 18°02' W 063°05'0 0.0
2018-Feb-14 11:52N 18°02' W 063°05'0 0.0
2018-Feb-14 11:10N 18°02' W 063°05'0 0.0
2018-Feb-14 10:55N 18°02' W 063°05'0 0.0
2018-Feb-14 10:28N 18°02' W 063°05'0 0.0
2018-Feb-14 09:58N 18°02' W 063°05'0 0.0
2018-Feb-14 09:28N 18°02' W 063°05'0 0.0
2018-Feb-14 08:58N 18°02' W 063°05'0 0.0
2018-Feb-14 08:28N 18°02' W 063°05'0 0.0
2018-Feb-14 07:58N 18°02' W 063°05'0 0.0
2018-Feb-14 07:28N 18°02' W 063°05'0 0.0
2018-Feb-14 06:58N 18°02' W 063°05'0 0.0
2018-Feb-14 06:28N 18°02' W 063°05'0 0.0
2018-Feb-14 05:58N 18°02' W 063°05'0 0.0
2018-Feb-14 05:28N 18°02' W 063°05'0 0.0
2018-Feb-14 04:58N 18°02' W 063°05'0 0.0
2018-Feb-14 04:28N 18°02' W 063°05'0 0.0
2018-Feb-14 03:58N 18°02' W 063°05'0 0.0
2018-Feb-14 03:19N 18°02' W 063°05'0 0.0
2018-Feb-14 02:49N 18°02' W 063°05'0 0.0
2018-Feb-14 02:19N 18°02' W 063°05'0 0.0
2018-Feb-14 01:52N 18°02' W 063°05'0 0.0
2018-Feb-14 01:22N 18°02' W 063°05'0 0.0
2018-Feb-14 00:52N 18°02' W 063°05'0 0.0
2018-Feb-14 00:22N 18°02' W 063°05'0 0.0
2018-Feb-13 23:52N 18°02' W 063°05'0 0.0
2018-Feb-13 23:22N 18°02' W 063°05'0 0.0
2018-Feb-13 22:55N 18°02' W 063°05'0 0.0
2018-Feb-13 22:25N 18°02' W 063°05'0 0.0
2018-Feb-13 21:55N 18°02' W 063°05'0 0.0
2018-Feb-13 21:25N 18°02' W 063°05'0 0.0
2018-Feb-13 20:55N 18°02' W 063°05'0 0.0
2018-Feb-13 20:25N 18°02' W 063°05'0 0.0
2018-Feb-13 19:58N 18°02' W 063°05'0 0.0
2018-Feb-13 19:28N 18°02' W 063°05'0 0.0
2018-Feb-13 18:58N 18°02' W 063°05'0 0.0
2018-Feb-13 18:28N 18°02' W 063°05'0 0.0
2018-Feb-13 17:58N 18°02' W 063°05'0 0.0
2018-Feb-13 17:28N 18°02' W 063°05'0 0.0
2018-Feb-13 16:58N 18°02' W 063°05'0 0.0
2018-Feb-13 16:28N 18°02' W 063°05'0 0.0
2018-Feb-13 15:58N 18°02' W 063°05'0 0.0
2018-Feb-13 15:28N 18°02' W 063°05'0 0.0
2018-Feb-13 14:58N 18°02' W 063°05'0 0.0
2018-Feb-13 14:28N 18°02' W 063°05'0 0.0
2018-Feb-13 13:58N 18°02' W 063°05'0 0.0
2018-Feb-13 13:19N 18°02' W 063°05'0 0.0
2018-Feb-13 12:49N 18°02' W 063°05'0 0.0
2018-Feb-13 12:19N 18°02' W 063°05'0 0.0
2018-Feb-13 11:52N 18°02' W 063°05'0 0.0
2018-Feb-13 11:22N 18°02' W 063°05'0 0.0
2018-Feb-13 10:52N 18°02' W 063°05'0 0.0
2018-Feb-13 10:22N 18°02' W 063°05'0 0.0
2018-Feb-13 09:52N 18°02' W 063°05'0 0.0
2018-Feb-13 09:22N 18°02' W 063°05'0 0.0
2018-Feb-13 08:55N 18°02' W 063°05'0 0.0
2018-Feb-13 08:25N 18°02' W 063°05'0 0.0
2018-Feb-13 07:55N 18°02' W 063°05'0 0.0
2018-Feb-13 07:25N 18°02' W 063°05'0 0.0
2018-Feb-13 06:55N 18°02' W 063°05'0 0.0
2018-Feb-13 06:28N 18°02' W 063°05'0 0.0
2018-Feb-13 05:58N 18°02' W 063°05'0 0.0
2018-Feb-13 05:28N 18°02' W 063°05'0 0.0
2018-Feb-13 04:58N 18°02' W 063°05'0 0.0
2018-Feb-13 04:28N 18°02' W 063°05'0 0.0
2018-Feb-13 03:58N 18°02' W 063°05'0 0.0
2018-Feb-13 03:28N 18°02' W 063°05'0 0.0
2018-Feb-13 02:58N 18°02' W 063°05'0 0.0
2018-Feb-13 02:28N 18°02' W 063°05'0 0.0
2018-Feb-13 01:58N 18°02' W 063°05'0 0.0
2018-Feb-13 01:28N 18°02' W 063°05'0 0.0
2018-Feb-13 00:58N 18°02' W 063°05'0 0.0
2018-Feb-13 00:28N 18°02' W 063°05'0 0.0
2018-Feb-12 23:58N 18°02' W 063°05'0 0.0
2018-Feb-12 23:19N 18°02' W 063°05'0 0.0
2018-Feb-12 22:49N 18°02' W 063°05'0 0.0
2018-Feb-12 22:22N 18°02' W 063°05'0 0.0
2018-Feb-12 21:52N 18°02' W 063°05'0 0.0
2018-Feb-12 21:22N 18°02' W 063°05'0 0.0
2018-Feb-12 20:52N 18°02' W 063°05'0 0.0
2018-Feb-12 20:22N 18°02' W 063°05'0 0.0
2018-Feb-12 19:52N 18°02' W 063°05'0 0.0
2018-Feb-12 19:25N 18°02' W 063°05'0 0.0
2018-Feb-12 18:52N 18°02' W 063°05'0 0.0
2018-Feb-12 18:25N 18°02' W 063°05'0 0.0
2018-Feb-12 17:55N 18°02' W 063°05'0 0.0
2018-Feb-12 17:25N 18°02' W 063°05'0 0.0
2018-Feb-12 16:55N 18°02' W 063°05'0 0.0
2018-Feb-12 16:28N 18°02' W 063°05'0 0.0
2018-Feb-12 15:58N 18°02' W 063°05'0 0.0
2018-Feb-12 15:13N 18°02' W 063°05'0 0.0
2018-Feb-12 14:55N 18°02' W 063°05'0 0.0
2018-Feb-12 14:28N 18°02' W 063°05'0 0.0
2018-Feb-12 13:58N 18°02' W 063°05'0 0.0
2018-Feb-12 13:28N 18°02' W 063°05'0 0.0
2018-Feb-12 12:55N 18°02' W 063°05'0 0.0
2018-Feb-12 12:28N 18°02' W 063°05'0 0.0
2018-Feb-12 11:58N 18°02' W 063°05'0 0.0
2018-Feb-12 11:28N 18°02' W 063°05'0 0.0
2018-Feb-12 10:58N 18°02' W 063°05'0 0.0
2018-Feb-12 10:28N 18°02' W 063°05'0 0.0
2018-Feb-12 09:58N 18°02' W 063°05'0 0.0
2018-Feb-12 09:16N 18°02' W 063°05'0 0.0
2018-Feb-12 08:49N 18°02' W 063°05'0 0.0
2018-Feb-12 08:22N 18°02' W 063°05'0 0.0
2018-Feb-12 07:49N 18°02' W 063°05'0 0.0
2018-Feb-12 07:22N 18°02' W 063°05'0 0.0
2018-Feb-12 06:52N 18°02' W 063°05'0 0.0
2018-Feb-12 06:07N 18°02' W 063°05'0 0.0
2018-Feb-12 05:49N 18°02' W 063°05'0 0.0
2018-Feb-12 05:25N 18°02' W 063°05'0 0.0
2018-Feb-12 04:55N 18°02' W 063°05'0 0.0
2018-Feb-12 04:25N 18°02' W 063°05'0 0.0
2018-Feb-12 03:55N 18°02' W 063°05'0 0.0
2018-Feb-12 03:25N 18°02' W 063°05'0 0.0
2018-Feb-12 02:55N 18°02' W 063°05'0 0.0
2018-Feb-12 02:28N 18°02' W 063°05'0 0.0
2018-Feb-12 01:58N 18°02' W 063°05'0 0.0
2018-Feb-12 01:28N 18°02' W 063°05'0 0.0
2018-Feb-12 00:58N 18°02' W 063°05'0 0.0
2018-Feb-12 00:28N 18°02' W 063°05'0 0.0
2018-Feb-11 23:55N 18°02' W 063°05'0 0.0
2018-Feb-11 23:28N 18°02' W 063°05'0 0.0
2018-Feb-11 22:58N 18°02' W 063°05'0 0.0
2018-Feb-11 22:28N 18°02' W 063°05'0 0.0
2018-Feb-11 21:58N 18°02' W 063°05'0 0.0
2018-Feb-11 21:28N 18°02' W 063°05'0 0.0
2018-Feb-11 20:49N 18°02' W 063°05'0 0.0
2018-Feb-11 20:28N 18°02' W 063°05'0 0.0
2018-Feb-11 19:58N 18°02' W 063°05'0 0.0
2018-Feb-11 19:19N 18°02' W 063°05'0 0.0
2018-Feb-11 18:49N 18°02' W 063°05'0 0.0
2018-Feb-11 18:19N 18°02' W 063°05'0 0.0
2018-Feb-11 17:52N 18°02' W 063°05'0 0.0
2018-Feb-11 17:22N 18°02' W 063°05'0 0.0
2018-Feb-11 16:52N 18°02' W 063°05'0 0.0
2018-Feb-11 16:22N 18°02' W 063°05'0 0.0
2018-Feb-11 15:52N 18°02' W 063°05'0 0.0
2018-Feb-11 15:22N 18°02' W 063°05'0 0.0
2018-Feb-11 14:55N 18°02' W 063°05'0 0.0
2018-Feb-11 14:25N 18°02' W 063°05'0 0.0
2018-Feb-11 13:55N 18°02' W 063°05'0 0.0
2018-Feb-11 13:25N 18°02' W 063°05'0 0.0
2018-Feb-11 12:55N 18°02' W 063°05'0 0.0
2018-Feb-11 12:28N 18°02' W 063°05'0 0.0
2018-Feb-11 11:58N 18°02' W 063°05'0 0.0
2018-Feb-11 11:28N 18°02' W 063°05'0 0.0
2018-Feb-11 10:58N 18°02' W 063°05'0 0.0
2018-Feb-11 10:28N 18°02' W 063°05'0 0.0
2018-Feb-11 09:58N 18°02' W 063°05'0 0.0
2018-Feb-11 09:28N 18°02' W 063°05'0 0.0
2018-Feb-11 08:58N 18°02' W 063°05'0 0.0
2018-Feb-11 08:28N 18°02' W 063°05'0 0.0
2018-Feb-11 07:58N 18°02' W 063°05'0 0.0
2018-Feb-11 07:28N 18°02' W 063°05'0 0.0
2018-Feb-11 06:49N 18°02' W 063°05'0 0.0
2018-Feb-11 06:28N 18°02' W 063°05'0 0.0
2018-Feb-11 05:46N 18°02' W 063°05'0 0.0
2018-Feb-11 05:19N 18°02' W 063°05'0 0.0
2018-Feb-11 04:49N 18°02' W 063°05'0 0.0
2018-Feb-11 04:22N 18°02' W 063°05'0 0.0
2018-Feb-11 03:52N 18°02' W 063°05'0 0.0
2018-Feb-11 03:19N 18°02' W 063°05'0 0.0
2018-Feb-11 02:52N 18°02' W 063°05'0 0.0
2018-Feb-11 02:19N 18°02' W 063°05'0 0.0
2018-Feb-11 01:49N 18°02' W 063°05'0 0.0
2018-Feb-11 01:25N 18°02' W 063°05'0 0.0
2018-Feb-11 00:55N 18°02' W 063°05'0 0.0
2018-Feb-11 00:25N 18°02' W 063°05'0 0.0
2018-Feb-10 23:55N 18°02' W 063°05'0 0.0
2018-Feb-10 23:25N 18°02' W 063°05'0 0.0
2018-Feb-10 22:55N 18°02' W 063°05'0 0.0
2018-Feb-10 22:28N 18°02' W 063°05'0 0.0
2018-Feb-10 21:13N 18°02' W 063°05'0 0.0
2018-Feb-10 20:58N 18°02' W 063°05'0 0.0
2018-Feb-10 20:28N 18°02' W 063°05'0 0.0
2018-Feb-10 19:55N 18°02' W 063°05'0 0.0
2018-Feb-10 19:28N 18°02' W 063°05'0 0.0
2018-Feb-10 18:58N 18°02' W 063°05'0 0.0
2018-Feb-10 18:28N 18°02' W 063°05'0 0.0
2018-Feb-10 17:58N 18°02' W 063°05'0 0.0
2018-Feb-10 17:01N 18°02' W 063°05'0 0.0
2018-Feb-10 16:58N 18°02' W 063°05'0 0.0
2018-Feb-10 16:28N 18°02' W 063°05'0 0.0
2018-Feb-10 15:46N 18°02' W 063°05'0 0.0
2018-Feb-10 15:19N 18°02' W 063°05'0 0.0
2018-Feb-10 14:49N 18°02' W 063°05'0 0.0
2018-Feb-10 14:22N 18°02' W 063°05'0 0.0
2018-Feb-10 13:49N 18°02' W 063°05'0 0.0
2018-Feb-10 13:22N 18°02' W 063°05'0 0.0
2018-Feb-10 12:52N 18°02' W 063°05'0 0.0
2018-Feb-10 12:22N 18°02' W 063°05'0 0.0
2018-Feb-10 11:52N 18°02' W 063°05'0 0.0
2018-Feb-10 11:25N 18°02' W 063°05'0 0.0
2018-Feb-10 10:55N 18°02' W 063°05'0 0.0
2018-Feb-10 10:25N 18°02' W 063°05'0 0.0
2018-Feb-10 09:55N 18°02' W 063°05'0 0.0
2018-Feb-10 09:25N 18°02' W 063°05'0 0.0
2018-Feb-10 08:58N 18°02' W 063°05'0 0.0
2018-Feb-10 08:28N 18°02' W 063°05'0 0.0
2018-Feb-10 07:58N 18°02' W 063°05'0 0.0
2018-Feb-10 07:28N 18°02' W 063°05'0 0.0
2018-Feb-10 06:58N 18°02' W 063°05'0 0.0
2018-Feb-10 06:16N 18°02' W 063°05'0 0.0
2018-Feb-10 05:55N 18°02' W 063°05'0 0.0
2018-Feb-10 05:28N 18°02' W 063°05'0 0.0
2018-Feb-10 04:58N 18°02' W 063°05'0 0.0
2018-Feb-10 04:16N 18°02' W 063°05'0 0.0
2018-Feb-10 03:58N 18°02' W 063°05'0 0.0
2018-Feb-10 03:28N 18°02' W 063°05'0 0.0
2018-Feb-10 02:49N 18°02' W 063°05'0 0.0
2018-Feb-10 02:19N 18°02' W 063°05'0 0.0
2018-Feb-10 01:49N 18°02' W 063°05'0 0.0
2018-Feb-10 01:19N 18°02' W 063°05'0 0.0
2018-Feb-10 00:49N 18°02' W 063°05'0 0.0
2018-Feb-10 00:19N 18°02' W 063°05'0 0.0
2018-Feb-09 23:52N 18°02' W 063°05'0 0.0
2018-Feb-09 23:22N 18°02' W 063°05'0 0.0
2018-Feb-09 22:52N 18°02' W 063°05'0 0.0
2018-Feb-09 22:37N 18°02' W 063°05'0 0.0
2018-Feb-08 01:25N 18°02' W 063°05'0 0.0
2018-Feb-08 00:58N 18°02' W 063°05'0 0.0
2018-Feb-08 00:28N 18°02' W 063°05'0 0.0
2018-Feb-07 23:58N 18°02' W 063°05'0 0.0
2018-Feb-07 23:28N 18°02' W 063°05'0 0.0
2018-Feb-07 22:58N 18°02' W 063°05'0 0.0
2018-Feb-07 22:28N 18°02' W 063°05'0 0.0
2018-Feb-07 21:58N 18°02' W 063°05'0 0.0
2018-Feb-07 21:28N 18°02' W 063°05'  

Dump ship's entire track history